createdAt,value
2019-05-21T00:01:39.504Z,20.80
2019-05-21T00:04:08.138Z,20.80
2019-05-21T00:06:36.501Z,20.80
2019-05-21T00:09:05.610Z,20.80
2019-05-21T00:11:34.204Z,20.80
2019-05-21T00:14:02.507Z,20.80
2019-05-21T00:16:30.816Z,20.80
2019-05-21T00:18:59.175Z,20.80
2019-05-21T00:21:27.467Z,20.80
2019-05-21T00:23:55.763Z,20.70
2019-05-21T00:26:24.386Z,20.70
2019-05-21T00:29:29.833Z,20.80
2019-05-21T00:32:34.887Z,20.80
2019-05-21T00:35:44.747Z,20.70
2019-05-21T00:38:51.897Z,20.80
2019-05-21T00:41:56.387Z,20.70
2019-05-21T00:44:25.011Z,20.70
2019-05-21T00:46:53.707Z,20.70
2019-05-21T00:49:22.131Z,20.70
2019-05-21T00:51:50.759Z,20.70
2019-05-21T00:54:19.354Z,20.70
2019-05-21T00:56:47.934Z,20.70
2019-05-21T00:59:16.544Z,20.70
2019-05-21T01:01:45.210Z,20.70
2019-05-21T01:04:13.535Z,20.70
2019-05-21T01:06:43.458Z,20.70
2019-05-21T01:09:11.757Z,20.70
2019-05-21T01:11:40.062Z,20.70
2019-05-21T01:14:08.348Z,20.70
2019-05-21T01:16:36.654Z,20.70
2019-05-21T01:19:05.291Z,20.70
2019-05-21T01:21:33.594Z,20.70
2019-05-21T01:24:02.149Z,20.70
2019-05-21T01:26:30.430Z,20.70
2019-05-21T01:28:58.734Z,20.70
2019-05-21T01:31:27.066Z,20.70
2019-05-21T01:33:55.488Z,20.70
2019-05-21T01:36:24.043Z,20.70
2019-05-21T01:38:52.515Z,20.70
2019-05-21T01:41:20.807Z,20.70
2019-05-21T01:43:49.124Z,20.70
2019-05-21T01:46:17.424Z,20.70
2019-05-21T01:48:46.041Z,20.70
2019-05-21T01:51:14.336Z,20.70
2019-05-21T01:53:43.013Z,20.70
2019-05-21T01:56:11.580Z,20.70
2019-05-21T01:58:39.883Z,20.70
2019-05-21T02:01:08.194Z,20.70
2019-05-21T02:03:36.851Z,20.70
2019-05-21T02:06:05.259Z,20.70
2019-05-21T02:08:33.614Z,20.70
2019-05-21T02:11:02.286Z,20.70
2019-05-21T02:13:30.859Z,20.70
2019-05-21T02:15:59.159Z,20.70
2019-05-21T02:18:27.837Z,20.60
2019-05-21T02:20:56.172Z,20.70
2019-05-21T02:23:24.511Z,20.70
2019-05-21T02:25:52.909Z,20.70
2019-05-21T02:28:21.203Z,20.70
2019-05-21T02:30:49.813Z,20.70
2019-05-21T02:33:18.099Z,20.60
2019-05-21T02:35:54.086Z,20.60
2019-05-21T02:38:17.116Z,20.60
2019-05-21T02:40:45.497Z,20.60
2019-05-21T02:43:13.892Z,20.60
2019-05-21T02:45:42.207Z,20.60
2019-05-21T02:48:10.495Z,20.60
2019-05-21T02:50:39.104Z,20.60
2019-05-21T02:53:07.686Z,20.60
2019-05-21T02:55:35.989Z,20.70
2019-05-21T02:58:04.278Z,20.70
2019-05-21T03:00:50.644Z,20.60
2019-05-21T03:03:20.830Z,20.60
2019-05-21T03:05:49.447Z,20.60
2019-05-21T03:08:17.768Z,20.60
2019-05-21T03:10:46.410Z,20.60
2019-05-21T03:13:14.723Z,20.60
2019-05-21T03:15:43.377Z,20.60
2019-05-21T03:18:11.751Z,20.60
2019-05-21T03:20:40.333Z,20.60
2019-05-21T03:23:08.643Z,20.60
2019-05-21T03:25:37.298Z,20.60
2019-05-21T03:28:05.907Z,20.60
2019-05-21T03:30:34.255Z,20.60
2019-05-21T03:33:02.587Z,20.60
2019-05-21T03:35:30.985Z,20.60
2019-05-21T03:37:59.283Z,20.60
2019-05-21T03:40:27.577Z,20.60
2019-05-21T03:42:55.956Z,20.60
2019-05-21T03:45:24.244Z,20.60
2019-05-21T03:47:52.809Z,20.60
2019-05-21T03:50:21.088Z,20.50
2019-05-21T03:52:49.393Z,20.50
2019-05-21T03:55:17.716Z,20.60
2019-05-21T03:57:45.995Z,20.50
2019-05-21T04:00:14.308Z,20.50
2019-05-21T04:02:42.832Z,20.50
2019-05-21T04:05:11.198Z,20.50
2019-05-21T04:07:39.488Z,20.50
2019-05-21T04:10:14.977Z,20.50
2019-05-21T04:12:45.209Z,20.50
2019-05-21T04:15:15.161Z,20.50
2019-05-21T04:18:00.085Z,20.50
2019-05-21T04:20:28.452Z,20.50
2019-05-21T04:22:56.737Z,20.50
2019-05-21T04:25:25.039Z,20.50
2019-05-21T04:27:53.332Z,20.50
2019-05-21T04:30:21.644Z,20.50
2019-05-21T04:32:50.008Z,20.50
2019-05-21T04:35:18.740Z,20.50
2019-05-21T04:37:47.060Z,20.50
2019-05-21T04:40:15.411Z,20.50
2019-05-21T04:42:43.706Z,20.50
2019-05-21T04:45:12.361Z,20.50
2019-05-21T04:47:40.759Z,20.50
2019-05-21T04:50:09.062Z,20.50
2019-05-21T04:52:37.501Z,20.50
2019-05-21T04:55:06.078Z,20.50
2019-05-21T04:57:37.341Z,20.50
2019-05-21T05:00:05.492Z,20.50
2019-05-21T05:02:33.776Z,20.40
2019-05-21T05:05:02.265Z,20.50
2019-05-21T05:07:31.035Z,20.50
2019-05-21T05:09:59.350Z,20.50
2019-05-21T05:12:27.639Z,20.40
2019-05-21T05:14:55.994Z,20.40
2019-05-21T05:17:24.398Z,20.40
2019-05-21T05:19:52.695Z,20.40
2019-05-21T05:22:21.308Z,20.40
2019-05-21T05:24:49.895Z,20.40
2019-05-21T05:27:18.284Z,20.40
2019-05-21T05:29:46.660Z,20.40
2019-05-21T05:32:15.231Z,20.40
2019-05-21T05:34:43.539Z,20.40
2019-05-21T05:37:11.818Z,20.40
2019-05-21T05:39:40.128Z,20.40
2019-05-21T05:42:08.491Z,20.40
2019-05-21T05:44:37.131Z,20.40
2019-05-21T05:47:05.434Z,20.40
2019-05-21T05:49:38.048Z,20.40
2019-05-21T05:52:06.376Z,20.40
2019-05-21T05:54:34.944Z,20.40
2019-05-21T05:57:03.252Z,20.40
2019-05-21T05:59:31.806Z,20.40
2019-05-21T06:02:00.124Z,20.40
2019-05-21T06:04:30.597Z,20.40
2019-05-21T06:06:58.814Z,20.40
2019-05-21T06:09:27.485Z,20.40
2019-05-21T06:11:55.776Z,20.40
2019-05-21T06:14:24.081Z,20.30
2019-05-21T06:16:52.720Z,20.40
2019-05-21T06:19:21.028Z,20.40
2019-05-21T06:21:49.327Z,20.40
2019-05-21T06:24:17.956Z,20.40
2019-05-21T06:26:46.255Z,20.40
2019-05-21T06:29:14.544Z,20.40
2019-05-21T06:31:43.200Z,20.40
2019-05-21T06:34:11.499Z,20.30
2019-05-21T06:36:40.160Z,20.40
2019-05-21T06:39:08.735Z,20.40
2019-05-21T06:41:37.316Z,20.40
2019-05-21T06:44:05.600Z,20.40
2019-05-21T06:46:34.384Z,20.40
2019-05-21T06:49:02.676Z,20.40
2019-05-21T06:51:31.035Z,20.30
2019-05-21T06:53:59.627Z,20.30
2019-05-21T06:56:27.939Z,20.30
2019-05-21T06:58:56.231Z,20.30
2019-05-21T07:01:28.786Z,20.30
2019-05-21T07:03:54.568Z,20.30
2019-05-21T07:06:22.900Z,20.40
2019-05-21T07:08:51.532Z,20.30
2019-05-21T07:11:19.839Z,20.30
2019-05-21T07:13:48.143Z,20.30
2019-05-21T07:16:16.796Z,20.30
2019-05-21T07:18:45.473Z,20.30
2019-05-21T07:21:13.783Z,20.30
2019-05-21T07:23:42.147Z,20.30
2019-05-21T07:26:10.931Z,20.30
2019-05-21T07:28:39.235Z,20.30
2019-05-21T07:31:09.239Z,20.30
2019-05-21T07:33:37.604Z,20.30
2019-05-21T07:36:05.923Z,20.30
2019-05-21T07:38:50.235Z,20.30
2019-05-21T07:41:04.310Z,20.30
2019-05-21T07:43:32.645Z,20.30
2019-05-21T07:46:01.342Z,20.30
2019-05-21T07:48:30.037Z,20.30
2019-05-21T07:50:58.363Z,20.30
2019-05-21T07:53:26.683Z,20.30
2019-05-21T07:55:55.370Z,20.30
2019-05-21T07:58:23.724Z,20.40
2019-05-21T08:00:52.012Z,20.30
2019-05-21T08:03:20.321Z,20.50
2019-05-21T08:05:48.621Z,20.50
2019-05-21T08:08:17.239Z,20.70
2019-05-21T08:10:45.534Z,20.80
2019-05-21T08:13:13.828Z,20.80
2019-05-21T08:15:42.130Z,20.80
2019-05-21T08:18:10.751Z,20.80
2019-05-21T08:20:39.044Z,20.80
2019-05-21T08:23:07.620Z,20.80
2019-05-21T08:25:35.912Z,20.80
2019-05-21T08:28:04.584Z,20.70
2019-05-21T08:30:33.169Z,20.80
2019-05-21T08:33:01.463Z,20.80
2019-05-21T08:35:29.795Z,20.70
2019-05-21T08:37:58.093Z,20.70
2019-05-21T08:40:26.679Z,20.70
2019-05-21T08:42:55.323Z,20.70
2019-05-21T08:45:24.046Z,20.70
2019-05-21T08:47:52.348Z,20.70
2019-05-21T08:50:20.659Z,20.80
2019-05-21T08:52:48.952Z,20.80
2019-05-21T08:55:17.568Z,20.80
2019-05-21T08:58:05.104Z,20.80
2019-05-21T09:00:18.031Z,20.80
2019-05-21T09:02:46.700Z,20.80
2019-05-21T09:05:15.708Z,20.80
2019-05-21T09:07:44.479Z,20.80
2019-05-21T09:10:12.869Z,20.70
2019-05-21T09:12:41.168Z,20.70
2019-05-21T09:15:09.476Z,20.70
2019-05-21T09:17:38.098Z,20.80
2019-05-21T09:20:07.709Z,20.80
2019-05-21T09:22:36.021Z,20.80
2019-05-21T09:25:05.504Z,20.80
2019-05-21T09:27:34.539Z,20.80
2019-05-21T09:30:03.619Z,20.80
2019-05-21T09:32:31.931Z,20.80
2019-05-21T09:35:00.239Z,20.80
2019-05-21T09:37:28.638Z,20.80
2019-05-21T09:39:57.246Z,20.80
2019-05-21T09:42:25.696Z,20.80
2019-05-21T09:44:54.127Z,20.80
2019-05-21T09:47:22.746Z,20.80
2019-05-21T09:49:51.484Z,20.80
2019-05-21T09:52:20.122Z,20.80
2019-05-21T09:54:48.434Z,20.90
2019-05-21T09:57:18.380Z,20.90
2019-05-21T09:59:48.628Z,21.00
2019-05-21T10:02:21.269Z,21.00
2019-05-21T10:04:49.579Z,21.00
2019-05-21T10:07:18.379Z,21.00
2019-05-21T10:09:46.746Z,21.00
2019-05-21T10:12:15.175Z,21.00
2019-05-21T10:14:43.562Z,21.00
2019-05-21T10:17:12.195Z,21.00
2019-05-21T10:19:40.896Z,21.00
2019-05-21T10:22:09.844Z,20.90
2019-05-21T10:24:38.894Z,21.00
2019-05-21T10:27:07.547Z,21.00
2019-05-21T10:29:35.869Z,20.90
2019-05-21T10:32:04.183Z,20.90
2019-05-21T10:34:32.927Z,20.90
2019-05-21T10:37:01.706Z,20.90
2019-05-21T10:39:30.085Z,20.90
2019-05-21T10:41:58.385Z,20.90
2019-05-21T10:44:26.702Z,20.90
2019-05-21T10:46:55.416Z,20.90
2019-05-21T10:49:23.988Z,21.00
2019-05-21T10:51:52.315Z,21.20
2019-05-21T10:54:20.971Z,21.30
2019-05-21T10:56:49.746Z,21.30
2019-05-21T10:59:18.121Z,21.30
2019-05-21T11:01:54.079Z,21.30
2019-05-21T11:04:36.276Z,21.20
2019-05-21T11:07:05.231Z,21.20
2019-05-21T11:09:34.167Z,21.20
2019-05-21T11:12:02.749Z,21.20
2019-05-21T11:14:31.325Z,21.20
2019-05-21T11:16:59.923Z,21.10
2019-05-21T11:19:28.704Z,21.10
2019-05-21T11:21:57.295Z,21.10
2019-05-21T11:24:25.608Z,21.10
2019-05-21T11:26:53.936Z,21.10
2019-05-21T11:29:22.345Z,21.10
2019-05-21T11:31:56.995Z,21.10
2019-05-21T11:34:21.131Z,21.10
2019-05-21T11:36:49.413Z,21.20
2019-05-21T11:39:17.752Z,21.20
2019-05-21T11:41:46.093Z,21.20
2019-05-21T11:44:14.424Z,21.20
2019-05-21T11:46:43.022Z,21.20
2019-05-21T11:49:11.307Z,21.10
2019-05-21T11:51:39.620Z,21.10
2019-05-21T11:54:08.267Z,21.10
2019-05-21T11:56:36.584Z,21.10
2019-05-21T11:59:04.984Z,21.10
2019-05-21T12:01:33.329Z,21.10
2019-05-21T12:04:01.684Z,21.10
2019-05-21T12:06:29.991Z,21.10
2019-05-21T12:08:58.284Z,21.10
2019-05-21T12:11:26.592Z,21.10
2019-05-21T12:13:55.183Z,21.00
2019-05-21T12:16:23.493Z,21.00
2019-05-21T12:18:51.799Z,21.00
2019-05-21T12:21:20.099Z,21.00
2019-05-21T12:23:48.396Z,21.00
2019-05-21T12:26:16.777Z,21.00
2019-05-21T12:28:45.315Z,21.00
2019-05-21T12:31:13.681Z,21.00
2019-05-21T12:33:41.971Z,21.00
2019-05-21T12:36:10.263Z,20.90
2019-05-21T12:38:38.876Z,20.90
2019-05-21T12:41:07.472Z,20.90
2019-05-21T12:43:35.792Z,20.90
2019-05-21T12:46:04.424Z,20.90
2019-05-21T12:48:33.025Z,20.90
2019-05-21T12:51:01.355Z,20.90
2019-05-21T12:53:29.707Z,20.90
2019-05-21T12:55:58.344Z,20.90
2019-05-21T12:58:26.638Z,20.90
2019-05-21T13:00:54.953Z,20.90
2019-05-21T13:03:23.318Z,20.90
2019-05-21T13:05:51.822Z,20.90
2019-05-21T13:08:20.241Z,20.90
2019-05-21T13:10:48.563Z,20.90
2019-05-21T13:13:16.937Z,20.90
2019-05-21T13:15:45.299Z,20.90
2019-05-21T13:18:13.613Z,20.90
2019-05-21T13:20:41.987Z,20.90
2019-05-21T13:23:10.293Z,20.90
2019-05-21T13:25:38.636Z,21.00
2019-05-21T13:28:06.963Z,21.00
2019-05-21T13:30:35.272Z,21.00
2019-05-21T13:33:03.820Z,20.90
2019-05-21T13:35:32.118Z,20.90
2019-05-21T13:38:00.920Z,20.90
2019-05-21T13:40:30.595Z,20.90
2019-05-21T13:42:59.360Z,20.90
2019-05-21T13:45:27.978Z,20.90
2019-05-21T13:47:56.557Z,20.90
2019-05-21T13:50:24.840Z,20.90
2019-05-21T13:52:53.154Z,20.90
2019-05-21T13:55:21.439Z,20.80
2019-05-21T13:57:49.745Z,20.90
2019-05-21T14:00:19.665Z,20.80
2019-05-21T14:02:47.992Z,20.90
2019-05-21T14:05:17.356Z,20.80
2019-05-21T14:07:45.662Z,20.80
2019-05-21T14:10:19.265Z,20.80
2019-05-21T14:12:44.689Z,20.80
2019-05-21T14:15:13.032Z,20.80
2019-05-21T14:17:41.422Z,20.90
2019-05-21T14:20:09.962Z,20.90
2019-05-21T14:22:38.676Z,21.10
2019-05-21T14:25:07.466Z,21.30
2019-05-21T14:27:44.228Z,21.50
2019-05-21T14:30:07.496Z,21.70
2019-05-21T14:32:35.949Z,21.80
2019-05-21T14:35:05.603Z,22.00
2019-05-21T14:37:33.998Z,22.10
2019-05-21T14:40:02.869Z,22.20
2019-05-21T14:42:31.554Z,22.20
2019-05-21T14:44:59.855Z,22.20
2019-05-21T14:47:28.164Z,22.20
2019-05-21T14:49:56.559Z,22.00
2019-05-21T14:52:24.855Z,22.00
2019-05-21T14:54:53.437Z,21.90
2019-05-21T14:57:21.749Z,21.80
2019-05-21T14:59:50.440Z,21.80
2019-05-21T15:02:18.786Z,21.70
2019-05-21T15:04:47.706Z,21.70
2019-05-21T15:07:16.330Z,21.70
2019-05-21T15:09:44.722Z,21.70
2019-05-21T15:12:13.536Z,21.60
2019-05-21T15:14:41.947Z,21.60
2019-05-21T15:17:10.286Z,21.60
2019-05-21T15:19:39.950Z,21.60
2019-05-21T15:22:08.545Z,21.60
2019-05-21T15:24:36.868Z,21.80
2019-05-21T15:27:05.454Z,21.90
2019-05-21T15:29:34.126Z,21.90
2019-05-21T15:32:02.719Z,21.90
2019-05-21T15:34:31.645Z,21.80
2019-05-21T15:37:00.200Z,21.80
2019-05-21T15:39:28.607Z,21.70
2019-05-21T15:41:57.240Z,21.70
2019-05-21T15:44:25.821Z,21.70
2019-05-21T15:46:54.154Z,21.60
2019-05-21T15:49:35.665Z,21.60
2019-05-21T15:51:52.838Z,21.60
2019-05-21T15:54:21.135Z,21.60
2019-05-21T15:56:49.541Z,21.60
2019-05-21T15:59:17.876Z,21.70
2019-05-21T16:01:46.278Z,21.90
2019-05-21T16:04:16.624Z,22.00
2019-05-21T16:06:44.694Z,22.10
2019-05-21T16:09:13.214Z,22.10
2019-05-21T16:11:41.806Z,22.10
2019-05-21T16:14:10.203Z,22.00
2019-05-21T16:16:38.537Z,22.00
2019-05-21T16:19:06.917Z,21.90
2019-05-21T16:21:35.214Z,21.90
2019-05-21T16:24:03.530Z,21.80
2019-05-21T16:26:31.834Z,21.80
2019-05-21T16:29:00.621Z,21.80
2019-05-21T16:31:29.079Z,21.70
2019-05-21T16:33:57.445Z,21.70
2019-05-21T16:36:26.084Z,21.80
2019-05-21T16:38:54.779Z,21.80
2019-05-21T16:41:24.807Z,22.00
2019-05-21T16:43:53.366Z,22.10
2019-05-21T16:46:21.724Z,22.10
2019-05-21T16:48:50.074Z,22.10
2019-05-21T16:51:18.713Z,22.00
2019-05-21T16:53:47.019Z,22.00
2019-05-21T16:56:15.370Z,21.90
2019-05-21T16:58:43.734Z,21.90
2019-05-21T17:01:13.680Z,21.90
2019-05-21T17:03:42.344Z,21.90
2019-05-21T17:06:10.660Z,21.80
2019-05-21T17:08:38.975Z,21.80
2019-05-21T17:11:07.584Z,21.70
2019-05-21T17:13:36.181Z,21.70
2019-05-21T17:16:05.219Z,21.70
2019-05-21T17:18:33.709Z,21.60
2019-05-21T17:21:02.044Z,21.60
2019-05-21T17:23:30.708Z,21.60
2019-05-21T17:25:59.304Z,21.60
2019-05-21T17:28:27.606Z,21.60
2019-05-21T17:30:55.912Z,21.70
2019-05-21T17:33:24.534Z,21.90
2019-05-21T17:35:53.120Z,22.10
2019-05-21T17:38:24.404Z,22.20
2019-05-21T17:40:51.829Z,22.30
2019-05-21T17:43:20.503Z,22.30
2019-05-21T17:45:49.088Z,22.30
2019-05-21T17:48:17.412Z,22.20
2019-05-21T17:50:46.050Z,22.20
2019-05-21T17:53:14.501Z,22.10
2019-05-21T17:55:43.224Z,22.00
2019-05-21T17:58:11.508Z,22.00
2019-05-21T18:00:44.608Z,21.90
2019-05-21T18:03:13.313Z,21.90
2019-05-21T18:05:41.627Z,21.80
2019-05-21T18:08:10.652Z,21.80
2019-05-21T18:10:39.735Z,21.80
2019-05-21T18:13:09.914Z,21.70
2019-05-21T18:15:38.367Z,21.70
2019-05-21T18:18:06.923Z,21.70
2019-05-21T18:20:35.835Z,21.70
2019-05-21T18:23:05.705Z,21.70
2019-05-21T18:25:35.751Z,21.80
2019-05-21T18:28:04.047Z,22.00
2019-05-21T18:30:32.633Z,22.10
2019-05-21T18:33:01.416Z,22.10
2019-05-21T18:35:29.996Z,22.10
2019-05-21T18:37:58.557Z,22.10
2019-05-21T18:40:26.895Z,22.00
2019-05-21T18:42:55.228Z,22.00
2019-05-21T18:45:23.898Z,21.90
2019-05-21T18:47:52.233Z,21.90
2019-05-21T18:50:35.055Z,21.80
2019-05-21T18:52:50.581Z,21.80
2019-05-21T18:55:19.161Z,21.70
2019-05-21T18:57:47.741Z,21.70
2019-05-21T19:00:16.202Z,21.70
2019-05-21T19:02:44.556Z,21.70
2019-05-21T19:05:13.185Z,21.70
2019-05-21T19:07:41.793Z,21.70
2019-05-21T19:10:10.454Z,21.80
2019-05-21T19:12:39.108Z,21.90
2019-05-21T19:15:08.261Z,22.00
2019-05-21T19:17:36.638Z,22.00
2019-05-21T19:20:07.552Z,21.90
2019-05-21T19:22:36.566Z,21.90
2019-05-21T19:25:06.847Z,21.90
2019-05-21T19:27:35.203Z,21.90
2019-05-21T19:30:04.863Z,21.90
2019-05-21T19:32:33.440Z,22.00
2019-05-21T19:35:01.819Z,22.20
2019-05-21T19:37:30.143Z,22.30
2019-05-21T19:39:58.893Z,22.40
2019-05-21T19:42:27.457Z,22.40
2019-05-21T19:44:56.056Z,22.30
2019-05-21T19:47:24.771Z,22.20
2019-05-21T19:49:53.365Z,22.10
2019-05-21T19:52:21.713Z,22.00
2019-05-21T19:54:49.999Z,22.00
2019-05-21T19:57:20.200Z,21.90
2019-05-21T19:59:48.559Z,21.90
2019-05-21T20:02:17.009Z,21.90
2019-05-21T20:04:46.083Z,21.90
2019-05-21T20:07:15.058Z,21.80
2019-05-21T20:09:45.013Z,21.80
2019-05-21T20:12:13.765Z,21.80
2019-05-21T20:14:42.848Z,21.70
2019-05-21T20:17:12.406Z,21.80
2019-05-21T20:19:41.272Z,21.70
2019-05-21T20:22:10.263Z,21.70
2019-05-21T20:24:39.064Z,21.70
2019-05-21T20:27:08.240Z,21.70
2019-05-21T20:29:37.324Z,21.80
2019-05-21T20:32:06.987Z,21.90
2019-05-21T20:34:35.298Z,22.10
2019-05-21T20:37:05.295Z,22.20
2019-05-21T20:39:35.225Z,22.30
2019-05-21T20:42:05.457Z,22.20
2019-05-21T20:44:33.847Z,22.20
2019-05-21T20:47:02.447Z,22.10
2019-05-21T20:49:30.934Z,22.10
2019-05-21T20:51:59.312Z,22.10
2019-05-21T20:54:28.493Z,22.00
2019-05-21T20:56:58.959Z,22.00
2019-05-21T20:59:27.241Z,21.90
2019-05-21T21:01:57.087Z,21.90
2019-05-21T21:04:25.467Z,21.90
2019-05-21T21:06:54.153Z,21.90
2019-05-21T21:09:22.742Z,21.80
2019-05-21T21:11:51.331Z,21.80
2019-05-21T21:14:20.536Z,21.80
2019-05-21T21:16:48.892Z,21.80
2019-05-21T21:19:17.451Z,21.80
2019-05-21T21:21:46.188Z,21.70
2019-05-21T21:24:14.570Z,21.80
2019-05-21T21:26:43.349Z,21.70
2019-05-21T21:29:12.137Z,21.70
2019-05-21T21:31:40.552Z,21.60
2019-05-21T21:34:09.400Z,21.70
2019-05-21T21:36:38.500Z,21.60
2019-05-21T21:39:07.734Z,21.60
2019-05-21T21:41:36.971Z,21.60
2019-05-21T21:44:05.688Z,21.60
2019-05-21T21:46:34.000Z,21.70
2019-05-21T21:49:03.186Z,21.70
2019-05-21T21:51:32.135Z,21.70
2019-05-21T21:54:01.495Z,21.70
2019-05-21T21:56:29.906Z,21.60
2019-05-21T21:58:58.427Z,21.60
2019-05-21T22:01:34.627Z,21.60
2019-05-21T22:04:03.892Z,21.60
2019-05-21T22:06:32.263Z,21.60
2019-05-21T22:09:02.122Z,21.60
2019-05-21T22:11:30.917Z,21.60
2019-05-21T22:14:00.482Z,21.60
2019-05-21T22:16:29.195Z,21.50
2019-05-21T22:18:57.985Z,21.50
2019-05-21T22:21:26.855Z,21.50
2019-05-21T22:23:55.119Z,21.50
2019-05-21T22:26:23.894Z,21.60
2019-05-21T22:28:52.739Z,21.50
2019-05-21T22:31:21.118Z,21.50
2019-05-21T22:33:49.744Z,21.50
2019-05-21T22:36:19.303Z,21.50
2019-05-21T22:38:48.060Z,21.40
2019-05-21T22:41:16.644Z,21.40
2019-05-21T22:43:45.613Z,21.40
2019-05-21T22:46:14.308Z,21.40
2019-05-21T22:48:42.897Z,21.40
2019-05-21T22:51:11.468Z,21.30
2019-05-21T22:53:39.936Z,21.40
2019-05-21T22:56:08.278Z,21.30
2019-05-21T22:58:36.740Z,21.40
2019-05-21T23:01:06.686Z,21.40
2019-05-21T23:03:35.234Z,21.30
2019-05-21T23:06:03.590Z,21.30
2019-05-21T23:08:32.167Z,21.30
2019-05-21T23:11:00.752Z,21.30
2019-05-21T23:13:29.041Z,21.30
2019-05-21T23:15:57.918Z,21.30
2019-05-21T23:18:26.903Z,21.30
2019-05-21T23:20:55.899Z,21.30
2019-05-21T23:23:25.920Z,21.20
2019-05-21T23:25:55.083Z,21.20
2019-05-21T23:28:24.708Z,21.30
2019-05-21T23:30:53.203Z,21.20
2019-05-21T23:33:22.559Z,21.20
2019-05-21T23:35:50.865Z,21.20
2019-05-21T23:38:19.580Z,21.20
2019-05-21T23:40:49.111Z,21.20
2019-05-21T23:43:18.226Z,21.20
2019-05-21T23:45:46.580Z,21.10
2019-05-21T23:48:16.472Z,21.20
2019-05-21T23:50:44.928Z,21.10
2019-05-21T23:53:13.235Z,21.10
2019-05-21T23:55:41.554Z,21.10
2019-05-21T23:58:10.015Z,21.10
